Time;durP1;ratioP1;P1;durP2;ratioP2;P2;SDS_P1;SDS_P2;PMS_P1;PMS_P2;Temp;Humidity;BMP_temperature;BMP_pressure;BME280_temperature;BME280_humidity;BME280_pressure;Samples;Min_cycle;Max_cycle;Signal;HPM_P1;HPM_P2
2023/08/31 00:02:19;;;;;;;9.70;8.80;;;14.30;99.90;;;;;;4996827;28;20278;-58
2023/08/31 00:04:46;;;;;;;10.17;9.27;;;14.30;99.90;;;;;;5018119;28;20222;-53
2023/08/31 00:07:12;;;;;;;11.77;9.73;;;14.30;99.90;;;;;;5015598;28;20208;-58
2023/08/31 00:09:40;;;;;;;11.37;9.73;;;14.30;99.90;;;;;;5023529;28;20471;-55
2023/08/31 00:12:07;;;;;;;10.70;9.63;;;14.30;99.90;;;;;;5016505;28;20192;-54
2023/08/31 00:14:37;;;;;;;10.27;9.27;;;14.30;99.90;;;;;;5013402;28;22571;-52
2023/08/31 00:17:04;;;;;;;10.27;8.87;;;14.30;99.90;;;;;;5015574;28;20543;-58
2023/08/31 00:19:31;;;;;;;11.13;9.43;;;14.20;99.90;;;;;;5016145;28;20199;-53
2023/08/31 00:21:58;;;;;;;9.63;8.63;;;14.30;99.90;;;;;;5024354;28;20207;-54
2023/08/31 00:24:29;;;;;;;9.70;8.70;;;14.20;99.90;;;;;;5023594;28;20990;-48
2023/08/31 00:26:56;;;;;;;9.87;8.93;;;14.20;99.90;;;;;;5018143;28;20207;-55
2023/08/31 00:29:25;;;;;;;9.10;8.20;;;14.20;99.90;;;;;;5020195;28;20230;-48
2023/08/31 00:31:53;;;;;;;9.50;8.03;;;14.20;99.90;;;;;;5018059;28;20192;-45
2023/08/31 00:34:20;;;;;;;10.07;9.03;;;14.20;99.90;;;;;;5004519;28;20220;-56
2023/08/31 00:36:48;;;;;;;8.97;8.10;;;14.20;99.90;;;;;;5030136;28;20203;-46
2023/08/31 00:39:20;;;;;;;10.23;8.63;;;14.20;99.90;;;;;;5024250;28;20581;-57
2023/08/31 00:41:47;;;;;;;8.83;8.00;;;14.20;99.90;;;;;;5027348;28;20208;-50
2023/08/31 00:44:14;;;;;;;9.30;7.83;;;14.10;99.90;;;;;;5009291;28;20781;-58
2023/08/31 00:46:42;;;;;;;9.07;8.17;;;14.10;99.90;;;;;;5013620;28;20203;-49
2023/08/31 00:49:10;;;;;;;8.80;7.87;;;14.20;99.90;;;;;;5019060;28;20594;-56
2023/08/31 00:51:38;;;;;;;9.83;8.83;;;14.10;99.90;;;;;;5009786;28;20410;-46
2023/08/31 00:54:05;;;;;;;11.70;9.00;;;14.10;99.90;;;;;;5024583;28;20713;-55
2023/08/31 00:56:33;;;;;;;10.43;9.43;;;14.10;99.90;;;;;;5023609;28;20214;-50
2023/08/31 00:59:00;;;;;;;11.33;10.03;;;14.00;99.90;;;;;;5015360;28;20667;-48
2023/08/31 01:01:36;;;;;;;12.33;9.57;;;14.00;99.90;;;;;;5008571;28;20577;-51
2023/08/31 01:04:17;;;;;;;10.63;9.20;;;14.00;99.90;;;;;;5022566;28;20204;-46
2023/08/31 01:06:54;;;;;;;10.13;9.13;;;13.90;99.90;;;;;;5009835;28;20208;-48
2023/08/31 01:09:31;;;;;;;10.90;9.70;;;13.90;99.90;;;;;;5016460;28;20210;-56
2023/08/31 01:12:04;;;;;;;10.23;9.23;;;13.90;99.90;;;;;;5025792;28;20202;-48
2023/08/31 01:14:34;;;;;;;9.67;8.67;;;13.90;99.90;;;;;;5014008;28;20211;-51
2023/08/31 01:17:03;;;;;;;9.43;8.37;;;13.80;99.90;;;;;;5027173;28;20203;-50
2023/08/31 01:19:46;;;;;;;10.27;8.07;;;13.80;99.90;;;;;;5020424;28;20207;-48
2023/08/31 01:22:18;;;;;;;10.70;7.83;;;13.80;99.90;;;;;;5010031;28;20224;-58
2023/08/31 01:24:48;;;;;;;8.97;8.10;;;13.70;99.90;;;;;;5042929;28;20795;-49
2023/08/31 01:27:16;;;;;;;9.40;8.00;;;13.70;99.90;;;;;;5034926;28;20555;-56
2023/08/31 01:29:43;;;;;;;9.17;8.03;;;13.70;99.90;;;;;;5023503;28;20228;-50
2023/08/31 01:32:10;;;;;;;7.87;7.10;;;13.70;99.90;;;;;;5025220;28;20187;-57
2023/08/31 01:34:39;;;;;;;8.90;7.87;;;13.70;99.90;;;;;;5022025;28;20204;-47
2023/08/31 01:37:13;;;;;;;8.37;7.50;;;13.60;99.90;;;;;;5007176;28;20208;-56
2023/08/31 01:39:45;;;;;;;9.30;7.20;;;13.50;99.90;;;;;;5028751;28;20214;-50
2023/08/31 01:42:17;;;;;;;9.13;7.80;;;13.50;99.90;;;;;;5029508;28;20204;-57
2023/08/31 01:44:48;;;;;;;8.63;7.43;;;13.50;99.90;;;;;;5024108;28;20226;-52
2023/08/31 01:47:19;;;;;;;7.97;7.10;;;13.50;99.90;;;;;;5017192;28;20199;-56
2023/08/31 01:49:46;;;;;;;8.90;7.03;;;13.40;99.90;;;;;;5021435;28;20223;-46
2023/08/31 01:52:13;;;;;;;8.30;6.70;;;13.40;99.90;;;;;;5010971;28;20297;-58
2023/08/31 01:54:40;;;;;;;8.07;7.27;;;13.40;99.90;;;;;;5020050;28;20441;-45
2023/08/31 01:57:07;;;;;;;10.77;7.43;;;13.40;99.90;;;;;;5035960;28;20208;-56
2023/08/31 01:59:35;;;;;;;8.00;6.63;;;13.30;99.90;;;;;;5024449;28;20369;-53
2023/08/31 02:02:03;;;;;;;8.00;6.63;;;13.30;99.90;;;;;;5022388;28;20215;-53
2023/08/31 02:04:30;;;;;;;8.63;7.00;;;13.20;99.90;;;;;;5022148;28;20216;-49
2023/08/31 02:06:57;;;;;;;7.30;6.60;;;13.20;99.90;;;;;;5032326;28;20224;-47
2023/08/31 02:09:24;;;;;;;7.87;6.93;;;13.10;99.90;;;;;;5009454;28;20203;-49
2023/08/31 02:11:51;;;;;;;7.27;6.67;;;13.10;99.90;;;;;;5038496;28;20200;-50
2023/08/31 02:14:18;;;;;;;6.63;5.93;;;13.10;99.90;;;;;;5020151;28;20720;-54
2023/08/31 02:16:46;;;;;;;7.53;6.27;;;13.10;99.90;;;;;;5017689;28;20187;-50
2023/08/31 02:19:13;;;;;;;10.23;6.20;;;13.00;99.90;;;;;;5028450;28;20200;-56
2023/08/31 02:21:40;;;;;;;6.77;6.10;;;13.00;99.90;;;;;;5020160;28;20492;-50
2023/08/31 02:24:07;;;;;;;7.40;6.00;;;13.00;99.90;;;;;;5006242;28;20251;-58
2023/08/31 02:26:35;;;;;;;6.00;5.50;;;13.00;99.90;;;;;;5024611;28;20210;-47
2023/08/31 02:29:02;;;;;;;8.10;6.03;;;13.00;99.90;;;;;;5030150;28;20542;-52
2023/08/31 02:31:29;;;;;;;7.10;6.00;;;13.00;99.90;;;;;;5006976;28;20709;-48
2023/08/31 02:33:57;;;;;;;6.87;5.00;;;12.90;99.90;;;;;;5031117;28;20658;-54
2023/08/31 02:36:24;;;;;;;8.23;5.90;;;12.90;99.90;;;;;;5019713;28;20195;-46
2023/08/31 02:38:52;;;;;;;6.13;5.50;;;12.90;99.90;;;;;;5024870;28;20254;-53
2023/08/31 02:41:20;;;;;;;6.23;5.37;;;12.90;99.90;;;;;;5007975;28;20214;-54
2023/08/31 02:43:47;;;;;;;7.57;5.47;;;12.80;99.90;;;;;;5021593;28;20251;-52
2023/08/31 02:46:14;;;;;;;5.70;4.90;;;12.80;99.90;;;;;;5028411;28;20216;-57
2023/08/31 02:48:41;;;;;;;7.27;5.80;;;12.80;99.90;;;;;;5014018;28;20211;-51
2023/08/31 02:51:10;;;;;;;5.80;5.20;;;12.80;99.90;;;;;;5030959;28;20195;-58
2023/08/31 02:53:37;;;;;;;6.63;5.33;;;12.80;99.90;;;;;;5021234;28;20328;-47
2023/08/31 02:56:04;;;;;;;6.50;4.70;;;12.80;99.90;;;;;;5012929;28;20233;-58
2023/08/31 02:58:31;;;;;;;5.70;5.07;;;12.70;99.90;;;;;;5024048;28;20196;-46
2023/08/31 03:01:07;;;;;;;6.03;5.37;;;12.70;99.90;;;;;;5029856;28;20210;-54
2023/08/31 03:03:35;;;;;;;7.73;4.73;;;12.70;99.90;;;;;;5005388;28;20215;-51
2023/08/31 03:06:01;;;;;;;7.37;5.40;;;12.60;99.90;;;;;;5024790;28;20315;-55
2023/08/31 03:08:30;;;;;;;5.10;4.70;;;12.60;99.90;;;;;;5021065;28;20208;-53
2023/08/31 03:10:58;;;;;;;6.43;4.60;;;12.60;99.90;;;;;;5027341;28;20625;-57
2023/08/31 03:13:25;;;;;;;6.83;5.03;;;12.60;99.90;;;;;;5017583;28;20195;-48
2023/08/31 03:15:53;;;;;;;7.17;4.63;;;12.50;99.90;;;;;;5025594;28;20232;-51
2023/08/31 03:18:20;;;;;;;5.33;4.93;;;12.60;99.90;;;;;;5018787;28;22616;-55
2023/08/31 03:20:50;;;;;;;6.80;5.10;;;12.50;99.90;;;;;;5014524;28;20231;-46
2023/08/31 03:23:18;;;;;;;5.33;4.83;;;12.50;99.90;;;;;;5017945;28;20215;-52
2023/08/31 03:25:46;;;;;;;5.07;4.67;;;12.60;99.90;;;;;;5026004;28;20231;-49
2023/08/31 03:28:13;;;;;;;8.20;4.87;;;12.50;99.90;;;;;;5012050;28;20247;-49
2023/08/31 03:30:40;;;;;;;5.70;4.70;;;12.40;99.90;;;;;;5029285;28;20204;-51
2023/08/31 03:33:07;;;;;;;10.80;4.93;;;12.40;99.90;;;;;;5017399;28;20192;-57
2023/08/31 03:35:34;;;;;;;6.73;3.90;;;12.40;99.90;;;;;;5022749;28;20278;-51
2023/08/31 03:38:01;;;;;;;5.13;4.27;;;12.40;99.90;;;;;;5017014;28;20195;-48
2023/08/31 03:40:29;;;;;;;7.63;4.50;;;12.40;99.90;;;;;;5012125;28;20283;-58
2023/08/31 03:42:57;;;;;;;5.40;4.33;;;12.30;99.90;;;;;;5003700;28;20220;-50
2023/08/31 03:45:24;;;;;;;5.93;4.37;;;12.30;99.90;;;;;;5021972;28;20585;-57
2023/08/31 03:47:51;;;;;;;5.33;4.83;;;12.30;99.90;;;;;;5014499;28;20204;-49
2023/08/31 03:50:18;;;;;;;7.00;4.03;;;12.20;99.90;;;;;;5014382;28;20204;-58
2023/08/31 03:52:47;;;;;;;9.17;4.13;;;12.30;99.90;;;;;;5023400;28;20188;-54
2023/08/31 03:55:14;;;;;;;4.83;3.87;;;12.30;99.90;;;;;;5007654;28;20702;-53
2023/08/31 03:57:41;;;;;;;4.47;3.73;;;12.20;99.90;;;;;;5022753;28;20199;-53
2023/08/31 04:00:16;;;;;;;6.43;3.97;;;12.20;99.90;;;;;;5010982;28;20566;-53
2023/08/31 04:02:43;;;;;;;4.90;3.80;;;12.20;99.90;;;;;;5024220;28;20475;-48
2023/08/31 04:05:11;;;;;;;5.17;3.80;;;12.10;99.90;;;;;;5016922;28;20713;-53
2023/08/31 04:07:38;;;;;;;6.53;3.57;;;12.10;99.90;;;;;;5017373;28;20192;-48
2023/08/31 04:10:06;;;;;;;4.50;3.43;;;12.10;99.90;;;;;;5011647;28;20231;-57
2023/08/31 04:12:33;;;;;;;4.93;3.63;;;12.10;99.90;;;;;;5024908;28;20180;-46
2023/08/31 04:14:59;;;;;;;5.43;3.60;;;12.10;99.90;;;;;;5013209;28;20223;-56
2023/08/31 04:17:28;;;;;;;7.40;4.03;;;12.10;99.90;;;;;;5023866;28;20270;-47
2023/08/31 04:19:55;;;;;;;4.77;3.30;;;12.10;99.90;;;;;;5024214;28;20200;-45
2023/08/31 04:22:22;;;;;;;3.30;2.83;;;12.00;99.90;;;;;;5017190;28;20208;-51
2023/08/31 04:24:48;;;;;;;6.00;3.33;;;12.00;99.90;;;;;;5019081;28;20243;-49
2023/08/31 04:27:15;;;;;;;4.97;2.97;;;12.00;99.90;;;;;;5023798;28;20195;-46
2023/08/31 04:29:42;;;;;;;4.77;3.20;;;11.90;99.90;;;;;;5033174;28;20195;-52
2023/08/31 04:32:09;;;;;;;4.10;3.33;;;11.90;99.90;;;;;;4989293;28;20282;-51
2023/08/31 04:34:37;;;;;;;7.93;3.20;;;11.90;99.90;;;;;;5021672;28;20222;-50
2023/08/31 04:37:04;;;;;;;6.60;2.77;;;11.90;99.90;;;;;;5009797;28;20657;-53
2023/08/31 04:39:31;;;;;;;4.67;2.97;;;11.90;99.90;;;;;;5009221;28;20253;-57
2023/08/31 04:41:58;;;;;;;3.43;2.93;;;11.90;99.90;;;;;;5021981;28;20262;-52
2023/08/31 04:44:24;;;;;;;3.60;2.70;;;11.90;99.90;;;;;;5027336;28;20285;-55
2023/08/31 04:46:52;;;;;;;3.07;2.67;;;11.90;99.90;;;;;;5006208;28;20613;-52
2023/08/31 04:49:19;;;;;;;5.43;2.80;;;11.90;99.90;;;;;;5027480;28;20208;-56
2023/08/31 04:51:47;;;;;;;4.60;3.13;;;11.90;99.90;;;;;;5012506;28;20212;-49
2023/08/31 04:54:14;;;;;;;6.57;3.17;;;11.90;99.90;;;;;;5027341;28;20212;-49
2023/08/31 04:56:40;;;;;;;3.90;2.43;;;11.90;99.90;;;;;;5015485;28;20226;-51
2023/08/31 04:59:07;;;;;;;4.03;2.73;;;11.90;99.90;;;;;;5015787;28;20732;-56
2023/08/31 05:01:34;;;;;;;4.70;2.90;;;11.90;99.90;;;;;;5007940;28;20506;-45
2023/08/31 05:04:02;;;;;;;5.40;3.20;;;11.90;99.90;;;;;;5026299;28;20215;-56
2023/08/31 05:06:29;;;;;;;5.90;2.87;;;11.90;99.90;;;;;;5011566;28;20295;-52
2023/08/31 05:08:57;;;;;;;4.63;3.47;;;11.90;99.90;;;;;;5020316;28;20269;-51
2023/08/31 05:11:24;;;;;;;3.10;2.80;;;11.90;99.90;;;;;;5016246;28;20462;-48
2023/08/31 05:13:52;;;;;;;3.27;2.63;;;11.90;99.90;;;;;;5025967;28;20200;-48
2023/08/31 05:16:19;;;;;;;3.00;2.43;;;11.90;99.90;;;;;;5004682;28;20204;-52
2023/08/31 05:18:46;;;;;;;3.87;3.00;;;12.00;99.90;;;;;;5031190;28;20220;-51
2023/08/31 05:21:13;;;;;;;6.17;3.50;;;12.00;99.90;;;;;;5016516;28;20859;-56
2023/08/31 05:23:39;;;;;;;5.30;2.57;;;12.00;99.90;;;;;;5020358;28;20265;-50
2023/08/31 05:26:07;;;;;;;4.10;3.17;;;12.00;99.90;;;;;;5022431;28;20261;-52
2023/08/31 05:28:34;;;;;;;6.37;3.70;;;12.00;99.90;;;;;;5016701;28;20200;-48
2023/08/31 05:31:03;;;;;;;5.23;4.50;;;12.00;99.90;;;;;;5032476;28;20604;-54
2023/08/31 05:33:33;;;;;;;8.70;4.07;;;12.00;99.90;;;;;;5002379;28;20296;-49
2023/08/31 05:36:03;;;;;;;3.50;3.17;;;12.00;99.90;;;;;;5021959;28;20292;-56
2023/08/31 05:38:30;;;;;;;4.27;3.57;;;12.00;99.90;;;;;;5010886;28;20959;-53
2023/08/31 05:41:06;;;;;;;5.27;3.27;;;12.10;99.90;;;;;;5022290;28;20200;-55
2023/08/31 05:43:35;;;;;;;4.97;3.60;;;12.10;99.90;;;;;;5018387;28;20223;-51
2023/08/31 05:46:02;;;;;;;3.77;3.47;;;12.10;99.90;;;;;;5010909;28;20867;-48
2023/08/31 05:48:29;;;;;;;4.43;4.03;;;12.20;99.90;;;;;;5007796;28;20683;-46
2023/08/31 05:50:56;;;;;;;8.27;4.10;;;12.10;99.90;;;;;;5018571;28;20192;-53
2023/08/31 05:53:23;;;;;;;4.73;3.90;;;12.20;99.90;;;;;;5026281;28;20196;-51
2023/08/31 05:55:50;;;;;;;7.83;3.70;;;12.20;99.90;;;;;;5018754;28;20281;-54
2023/08/31 05:58:16;;;;;;;5.43;3.93;;;12.30;99.90;;;;;;5025662;28;20208;-53
2023/08/31 06:00:45;;;;;;;4.83;3.73;;;12.30;99.90;;;;;;5020476;28;20688;-57
2023/08/31 06:03:11;;;;;;;9.53;4.03;;;12.30;99.90;;;;;;5008714;28;20229;-50
2023/08/31 06:05:39;;;;;;;5.67;3.83;;;12.40;99.90;;;;;;5026462;28;20270;-53
2023/08/31 06:08:06;;;;;;;4.03;3.63;;;12.40;99.90;;;;;;5015806;28;20897;-48
2023/08/31 06:10:33;;;;;;;7.03;4.20;;;12.50;99.90;;;;;;5018184;28;20200;-51
2023/08/31 06:13:00;;;;;;;4.37;3.93;;;12.50;99.90;;;;;;5021734;28;20196;-46
2023/08/31 06:15:26;;;;;;;6.07;3.37;;;12.50;99.90;;;;;;5009196;28;20216;-52
2023/08/31 06:17:54;;;;;;;4.07;2.90;;;12.60;99.90;;;;;;5022149;28;20200;-54
2023/08/31 06:20:22;;;;;;;4.93;3.53;;;12.60;99.90;;;;;;5005785;28;20274;-56
2023/08/31 06:22:49;;;;;;;4.77;3.57;;;12.60;99.90;;;;;;5005907;28;20273;-47
2023/08/31 06:25:18;;;;;;;4.70;3.20;;;12.70;99.90;;;;;;5018243;28;20251;-47
2023/08/31 06:27:45;;;;;;;3.37;3.07;;;12.70;99.90;;;;;;5013631;28;20204;-56
2023/08/31 06:30:15;;;;;;;4.20;2.77;;;12.70;99.90;;;;;;5019255;28;20200;-47
2023/08/31 06:32:43;;;;;;;4.60;2.77;;;12.80;99.90;;;;;;5022824;28;20192;-57
2023/08/31 06:35:11;;;;;;;3.67;2.77;;;12.80;99.90;;;;;;5013334;28;20267;-46
2023/08/31 06:37:39;;;;;;;4.00;2.50;;;12.90;99.90;;;;;;5026331;28;20275;-54
2023/08/31 06:40:08;;;;;;;3.87;2.40;;;12.90;99.90;;;;;;5015054;28;20200;-49
2023/08/31 06:42:35;;;;;;;2.90;2.70;;;13.00;99.90;;;;;;5016943;28;20351;-54
2023/08/31 06:45:02;;;;;;;4.33;2.30;;;13.00;99.90;;;;;;5013983;28;22809;-51
2023/08/31 06:47:28;;;;;;;4.40;2.60;;;13.10;99.90;;;;;;5026054;28;20666;-56
2023/08/31 06:49:55;;;;;;;3.93;2.47;;;13.10;99.90;;;;;;5021659;28;20956;-51
2023/08/31 06:52:24;;;;;;;6.47;2.60;;;13.10;99.90;;;;;;5004865;28;20207;-51
2023/08/31 06:54:54;;;;;;;3.67;2.67;;;13.20;99.90;;;;;;5005079;28;20884;-51
2023/08/31 06:57:21;;;;;;;2.33;2.13;;;13.30;99.90;;;;;;5013004;28;20204;-56
2023/08/31 06:59:48;;;;;;;2.77;2.40;;;13.30;99.90;;;;;;5032263;28;20196;-52
2023/08/31 07:02:15;;;;;;;4.17;2.37;;;13.40;99.90;;;;;;5020582;28;20630;-59
2023/08/31 07:04:43;;;;;;;5.40;2.63;;;13.40;99.90;;;;;;5022233;28;20224;-50
2023/08/31 07:07:10;;;;;;;3.73;2.30;;;13.40;99.90;;;;;;5012651;28;20546;-54
2023/08/31 07:09:40;;;;;;;2.40;2.00;;;13.50;99.90;;;;;;5008458;28;20200;-46
2023/08/31 07:12:07;;;;;;;2.77;2.40;;;13.50;99.90;;;;;;5025189;28;20229;-56
2023/08/31 07:14:34;;;;;;;5.23;2.43;;;13.60;99.90;;;;;;5009056;28;20320;-54
2023/08/31 07:17:00;;;;;;;5.20;2.60;;;13.60;99.90;;;;;;5017994;28;20235;-49
2023/08/31 07:19:27;;;;;;;2.60;2.40;;;13.60;99.90;;;;;;5018207;28;20200;-49
2023/08/31 07:21:55;;;;;;;4.03;1.97;;;13.70;99.90;;;;;;5021124;28;20199;-50
2023/08/31 07:24:23;;;;;;;4.07;2.20;;;13.80;99.90;;;;;;5012839;28;20216;-59
2023/08/31 07:26:51;;;;;;;3.77;1.80;;;13.80;99.90;;;;;;5016505;28;20204;-47
2023/08/31 07:29:18;;;;;;;2.90;1.97;;;13.80;99.90;;;;;;5015810;28;20204;-59
2023/08/31 07:31:45;;;;;;;4.30;1.80;;;13.90;99.90;;;;;;5020255;28;20237;-48
2023/08/31 07:34:12;;;;;;;2.27;1.60;;;13.90;99.90;;;;;;5017810;28;20192;-57
2023/08/31 07:36:39;;;;;;;2.77;1.60;;;14.00;99.90;;;;;;5024301;28;20200;-52
2023/08/31 07:39:07;;;;;;;2.37;1.33;;;14.10;99.90;;;;;;5010458;28;20781;-53
2023/08/31 07:41:33;;;;;;;1.90;1.57;;;14.20;99.90;;;;;;5015990;28;20196;-48
2023/08/31 07:44:02;;;;;;;3.27;1.47;;;14.20;99.90;;;;;;5017075;28;20286;-46
2023/08/31 07:46:29;;;;;;;3.53;1.47;;;14.30;99.90;;;;;;5023465;28;20279;-51
2023/08/31 07:48:56;;;;;;;1.57;1.10;;;14.40;99.90;;;;;;5009847;28;20219;-48
2023/08/31 07:51:25;;;;;;;0.83;0.83;;;14.50;99.90;;;;;;5018968;28;20670;-57
2023/08/31 07:53:52;;;;;;;1.80;1.33;;;14.40;99.90;;;;;;5013292;28;20196;-51
2023/08/31 07:56:19;;;;;;;3.77;1.17;;;14.50;99.90;;;;;;5017588;28;20220;-48
2023/08/31 07:58:46;;;;;;;2.23;1.10;;;14.60;99.90;;;;;;5016033;28;20689;-56
2023/08/31 08:01:16;;;;;;;1.63;1.20;;;14.70;99.90;;;;;;5031106;28;20205;-51
2023/08/31 08:03:42;;;;;;;2.33;1.00;;;14.80;99.90;;;;;;5018169;28;20231;-51
2023/08/31 08:06:09;;;;;;;0.80;0.80;;;14.80;99.90;;;;;;5018991;28;20281;-52
2023/08/31 08:08:36;;;;;;;1.50;1.00;;;14.90;99.90;;;;;;5030515;28;20191;-54
2023/08/31 08:11:05;;;;;;;5.13;1.20;;;14.90;99.90;;;;;;5009005;28;20211;-55
2023/08/31 08:13:31;;;;;;;2.87;2.07;;;14.90;99.90;;;;;;5011667;28;20195;-54
2023/08/31 08:15:58;;;;;;;2.03;1.43;;;15.00;99.90;;;;;;5015032;28;20220;-55
2023/08/31 08:18:26;;;;;;;3.00;0.93;;;15.10;99.90;;;;;;5017569;28;20223;-54
2023/08/31 08:20:54;;;;;;;2.80;1.37;;;15.20;99.90;;;;;;5027136;28;20199;-52
2023/08/31 08:23:21;;;;;;;2.80;0.87;;;15.30;99.90;;;;;;5029675;28;20207;-54
2023/08/31 08:25:48;;;;;;;2.27;1.20;;;15.40;99.90;;;;;;5010300;28;20269;-55
2023/08/31 08:28:15;;;;;;;3.50;1.07;;;15.50;99.90;;;;;;5028575;28;20208;-46
2023/08/31 08:30:42;;;;;;;3.30;1.70;;;15.50;99.90;;;;;;5013713;28;20773;-50
2023/08/31 08:33:09;;;;;;;2.10;1.27;;;15.50;99.90;;;;;;5025736;28;20269;-48
2023/08/31 08:35:38;;;;;;;1.60;1.07;;;15.40;99.90;;;;;;5009999;28;22455;-56
2023/08/31 08:38:05;;;;;;;1.83;1.50;;;15.30;99.90;;;;;;5033579;28;20198;-56
2023/08/31 08:40:32;;;;;;;3.67;1.80;;;15.20;99.90;;;;;;5012612;28;20361;-56
2023/08/31 08:43:02;;;;;;;3.07;1.53;;;15.20;99.90;;;;;;5039071;28;20532;-48
2023/08/31 08:45:37;;;;;;;2.70;1.40;;;15.30;99.90;;;;;;5015454;28;20403;-56
2023/08/31 08:48:06;;;;;;;3.10;1.60;;;15.30;99.90;;;;;;5019111;28;20195;-54
2023/08/31 08:50:34;;;;;;;4.47;1.43;;;15.50;99.90;;;;;;5014974;28;20207;-56
2023/08/31 08:53:03;;;;;;;2.30;1.47;;;15.70;99.90;;;;;;5030738;28;20219;-56
2023/08/31 08:55:30;;;;;;;2.17;1.83;;;15.80;99.90;;;;;;5028787;28;20216;-56
2023/08/31 08:57:59;;;;;;;3.20;1.70;;;16.00;99.90;;;;;;5020230;28;20216;-54
2023/08/31 09:00:27;;;;;;;2.50;1.73;;;16.10;99.90;;;;;;5015705;28;20218;-54
2023/08/31 09:02:54;;;;;;;3.60;1.87;;;16.30;99.90;;;;;;5024892;28;20195;-56
2023/08/31 09:05:21;;;;;;;2.83;1.80;;;16.30;99.90;;;;;;5024642;28;20230;-51
2023/08/31 09:08:03;;;;;;;2.47;1.90;;;16.30;99.90;;;;;;5017714;28;20227;-56
2023/08/31 09:10:37;;;;;;;4.20;1.80;;;16.20;99.90;;;;;;5026689;28;20188;-55
2023/08/31 09:13:08;;;;;;;2.17;1.77;;;16.20;99.90;;;;;;5014341;28;20226;-55
2023/08/31 09:15:42;;;;;;;5.40;1.80;;;16.10;99.90;;;;;;5017498;28;20203;-57
2023/08/31 09:18:09;;;;;;;1.77;1.67;;;16.00;99.90;;;;;;5020900;28;20214;-52
2023/08/31 09:20:46;;;;;;;5.30;1.93;;;15.90;99.90;;;;;;5029071;28;20227;-53
2023/08/31 09:23:14;;;;;;;4.57;1.77;;;15.70;99.90;;;;;;5021426;28;20289;-52
2023/08/31 09:25:45;;;;;;;2.60;1.50;;;15.70;99.90;;;;;;5027901;28;21030;-54
2023/08/31 09:28:13;;;;;;;1.90;1.67;;;15.60;99.90;;;;;;5010780;28;20596;-51
2023/08/31 09:30:41;;;;;;;2.30;1.47;;;15.60;99.90;;;;;;5020601;28;21326;-52
2023/08/31 09:33:09;;;;;;;2.50;1.60;;;15.70;99.90;;;;;;5024711;28;20283;-52
2023/08/31 09:35:40;;;;;;;3.27;1.60;;;15.80;99.90;;;;;;5027472;28;20220;-55
2023/08/31 09:38:09;;;;;;;3.63;1.87;;;16.00;99.90;;;;;;5030915;28;20200;-54
2023/08/31 09:40:38;;;;;;;2.40;1.57;;;16.20;99.90;;;;;;5016726;28;20214;-53
2023/08/31 09:43:05;;;;;;;2.50;1.30;;;16.30;99.90;;;;;;5024562;28;20196;-55
2023/08/31 09:45:33;;;;;;;1.67;1.33;;;16.50;99.90;;;;;;5005861;28;20329;-53
2023/08/31 09:48:01;;;;;;;3.33;1.60;;;16.60;99.90;;;;;;5013833;28;20204;-56
2023/08/31 09:50:30;;;;;;;2.13;2.00;;;16.60;99.90;;;;;;5013862;28;20207;-54
2023/08/31 09:53:01;;;;;;;2.47;1.43;;;16.50;99.90;;;;;;5020444;28;20231;-56
2023/08/31 09:55:30;;;;;;;5.37;3.73;;;16.30;99.90;;;;;;5005841;28;20704;-52
2023/08/31 09:57:59;;;;;;;6.73;2.40;;;16.20;99.90;;;;;;5022053;28;20206;-55
2023/08/31 10:00:27;;;;;;;3.07;1.63;;;16.00;99.90;;;;;;4994007;28;20212;-48
2023/08/31 10:02:57;;;;;;;2.90;1.70;;;15.90;99.90;;;;;;5011821;28;20254;-54
2023/08/31 10:05:25;;;;;;;2.07;1.33;;;15.80;99.90;;;;;;5019724;28;20660;-47
2023/08/31 10:07:52;;;;;;;4.03;1.60;;;15.90;99.90;;;;;;5019684;28;20200;-56
2023/08/31 10:10:20;;;;;;;3.30;1.70;;;16.10;99.90;;;;;;5014053;28;20212;-49
2023/08/31 10:12:49;;;;;;;1.50;1.40;;;16.30;99.90;;;;;;5029406;28;20200;-54
2023/08/31 10:15:19;;;;;;;1.60;1.20;;;16.30;99.90;;;;;;5003642;28;20246;-51
2023/08/31 10:17:46;;;;;;;1.83;1.40;;;16.50;99.90;;;;;;5018498;28;20277;-58
2023/08/31 10:20:16;;;;;;;2.30;1.33;;;16.70;99.90;;;;;;5018215;28;20191;-49
2023/08/31 10:22:43;;;;;;;3.07;1.73;;;16.80;99.90;;;;;;5016632;28;20262;-56
2023/08/31 10:25:11;;;;;;;4.10;2.10;;;16.70;99.90;;;;;;5026906;28;20673;-48
2023/08/31 10:27:39;;;;;;;2.10;1.90;;;16.70;99.90;;;;;;5016755;28;20196;-55
2023/08/31 10:30:32;;;;;;;2.77;1.60;;;16.80;99.90;;;;;;5020739;28;20200;-49
2023/08/31 10:33:22;;;;;;;1.40;1.30;;;16.90;99.90;;;;;;5011362;28;20224;-55
2023/08/31 10:35:55;;;;;;;3.43;1.50;;;16.80;99.90;;;;;;5021685;28;20696;-54
2023/08/31 10:38:27;;;;;;;1.73;1.47;;;16.80;99.90;;;;;;5021040;28;20235;-53
2023/08/31 10:41:02;;;;;;;4.63;1.77;;;16.90;99.90;;;;;;5016643;28;20204;-58
2023/08/31 10:43:44;;;;;;;2.57;1.70;;;16.80;99.90;;;;;;5017853;28;20911;-56
2023/08/31 10:46:18;;;;;;;2.20;1.43;;;16.60;99.90;;;;;;5007533;28;20215;-52
2023/08/31 10:48:51;;;;;;;3.50;1.80;;;16.60;99.90;;;;;;5017179;28;20216;-58
2023/08/31 10:51:20;;;;;;;1.97;1.80;;;16.60;99.90;;;;;;5017071;28;20243;-51
2023/08/31 10:53:46;;;;;;;1.87;1.70;;;16.50;99.90;;;;;;5028714;28;20250;-57
2023/08/31 10:56:16;;;;;;;4.03;1.97;;;16.50;99.90;;;;;;5024332;28;20216;-51
2023/08/31 10:58:44;;;;;;;2.10;1.90;;;16.50;99.90;;;;;;5019768;28;20203;-58
2023/08/31 11:01:11;;;;;;;2.80;1.87;;;16.40;99.90;;;;;;5007133;28;20239;-52
2023/08/31 11:04:00;;;;;;;4.43;2.50;;;16.60;99.90;;;;;;5015015;28;20195;-58
2023/08/31 11:06:29;;;;;;;2.27;2.07;;;16.80;99.90;;;;;;5017542;28;20216;-58
2023/08/31 11:08:57;;;;;;;6.27;2.40;;;17.10;99.90;;;;;;5020669;28;20196;-54
2023/08/31 11:11:24;;;;;;;2.57;2.13;;;17.20;99.90;;;;;;5023466;28;20270;-58
2023/08/31 11:13:58;;;;;;;2.53;1.90;;;17.30;99.90;;;;;;5015698;28;20206;-53
2023/08/31 11:16:24;;;;;;;3.00;1.50;;;17.50;99.90;;;;;;5004856;28;20232;-56
2023/08/31 11:18:52;;;;;;;2.17;1.40;;;17.50;99.90;;;;;;5021003;28;20254;-50
2023/08/31 11:21:20;;;;;;;2.90;1.33;;;17.50;99.90;;;;;;5008745;28;20277;-54
2023/08/31 11:23:49;;;;;;;3.97;1.57;;;17.30;99.90;;;;;;5027690;28;20206;-54
2023/08/31 11:26:16;;;;;;;1.40;1.30;;;17.20;99.90;;;;;;5027439;28;20233;-58
2023/08/31 11:28:46;;;;;;;3.33;1.70;;;17.20;99.90;;;;;;5015878;28;20203;-58
2023/08/31 11:31:13;;;;;;;2.13;1.20;;;17.20;99.90;;;;;;5022415;28;20211;-56
2023/08/31 11:33:41;;;;;;;2.57;0.97;;;17.30;99.90;;;;;;4998731;28;20227;-57
2023/08/31 11:36:13;;;;;;;2.40;1.10;;;17.50;99.90;;;;;;5008697;28;20223;-57
2023/08/31 11:38:41;;;;;;;0.70;0.70;;;17.50;99.90;;;;;;5026644;28;20590;-56
2023/08/31 11:41:09;;;;;;;4.93;1.13;;;17.50;99.90;;;;;;5025621;28;20191;-58
2023/08/31 11:43:37;;;;;;;2.10;0.90;;;17.60;99.90;;;;;;5015145;28;20206;-58
2023/08/31 11:46:04;;;;;;;1.00;0.93;;;17.50;99.90;;;;;;5024094;28;20219;-49
2023/08/31 11:48:31;;;;;;;1.27;0.80;;;17.40;99.90;;;;;;4999991;28;20619;-54
2023/08/31 11:50:59;;;;;;;1.63;0.90;;;17.50;99.90;;;;;;5018267;28;20678;-48
2023/08/31 11:53:29;;;;;;;2.17;1.13;;;17.60;99.90;;;;;;5013233;28;20278;-58
2023/08/31 11:55:57;;;;;;;1.77;0.77;;;17.80;99.90;;;;;;5028301;28;20269;-51
2023/08/31 11:58:27;;;;;;;1.40;0.60;;;17.70;99.90;;;;;;5013671;28;20223;-56
2023/08/31 12:00:58;;;;;;;1.73;0.70;;;17.70;99.90;;;;;;5030798;28;20195;-54
2023/08/31 12:03:25;;;;;;;0.60;0.60;;;17.60;99.90;;;;;;5008489;28;20324;-53
2023/08/31 12:05:54;;;;;;;2.00;1.13;;;17.60;99.90;;;;;;5003486;28;20215;-50
2023/08/31 12:08:25;;;;;;;0.77;0.53;;;17.70;99.90;;;;;;5006098;28;20841;-50
2023/08/31 12:10:52;;;;;;;1.53;0.60;;;17.70;99.90;;;;;;5006944;28;20200;-53
2023/08/31 12:13:21;;;;;;;1.83;0.80;;;17.60;99.90;;;;;;5014291;28;20277;-58
2023/08/31 12:15:53;;;;;;;1.10;0.70;;;17.60;99.90;;;;;;5023429;28;20216;-51
2023/08/31 12:18:20;;;;;;;3.27;0.70;;;17.50;99.90;;;;;;5027795;28;20200;-55
2023/08/31 12:20:48;;;;;;;2.73;0.73;;;17.70;99.90;;;;;;4999118;28;20239;-52
2023/08/31 12:23:15;;;;;;;0.93;0.80;;;18.00;99.90;;;;;;5015726;28;21728;-57
2023/08/31 12:25:47;;;;;;;1.60;0.67;;;18.30;99.90;;;;;;5021733;28;20228;-52
2023/08/31 12:28:14;;;;;;;1.30;0.70;;;18.30;99.90;;;;;;5014642;28;20211;-53
2023/08/31 12:30:46;;;;;;;2.93;0.63;;;18.20;99.90;;;;;;5021323;28;20275;-51
2023/08/31 12:33:13;;;;;;;1.33;0.70;;;18.20;99.90;;;;;;5020063;28;20715;-59
2023/08/31 12:35:40;;;;;;;1.50;0.80;;;18.20;99.90;;;;;;5005604;28;20619;-50
2023/08/31 12:38:07;;;;;;;1.70;0.40;;;18.20;99.90;;;;;;5008314;28;23130;-58
2023/08/31 12:40:34;;;;;;;0.97;0.67;;;18.10;99.90;;;;;;5023710;28;20198;-56
2023/08/31 12:43:02;;;;;;;0.30;0.20;;;17.80;99.90;;;;;;5010043;28;20212;-58
2023/08/31 12:45:29;;;;;;;0.40;0.30;;;17.50;99.90;;;;;;5017055;28;20293;-57
2023/08/31 12:47:57;;;;;;;0.80;0.33;;;17.30;99.90;;;;;;5012839;28;20223;-58
2023/08/31 12:50:24;;;;;;;0.60;0.30;;;17.10;99.90;;;;;;5015086;28;20208;-55
2023/08/31 12:52:50;;;;;;;1.67;0.40;;;16.90;99.90;;;;;;4994191;28;20223;-56